Terminal Aerodrome Forecast
Issued by NWS

Home | Current Version | Previous Version | Text Only | Print | Product List | Glossary Off
Versions: 1 2 3 4 5 6 7 8 9 10 11 12 13 14

000
FTUS43 KIWX 201121
TAFSBN
TAF
KSBN 201121Z 2012/2112 25007KT P6SM FEW050
     FM201500 28010G19KT P6SM SCT050
     FM202000 31010KT P6SM VCTS BKN070CB
     FM210000 20004KT P6SM BKN100=

USA.gov is the U.S. government's official web portal to all federal, state and local government web resources and services.